• Join FlightAware (Why Join?)
  • Login
  • US Flag 
04:14PM EST


 

Airport Tracker/Info


-or-


 

Live Flight TrackerFlight Track Log ✈ UCA4838 ✈ 17-Aug-2013 ✈ KROC - KEWR

Flight Track Log - Related Links

Times and Time Zones

All times are in EDT time to prevent confusion due to time zone crossing. See the UCA4838 flight status page for this flight to view local times or setup timezone preferences in your user account.

Time Position Orientation Groundspeed Altitude Reporting Facility
EDT Latitude Longitude Course Direction KTS MPH feet Rate Location/Type
06:10AM 43.1056 -77.6883 124° Southeast 105 121 1,100  Level Cleveland Center
06:11AM 43.0681 -77.6928 185° South 167 192 1,900 1,200 Climbing Cleveland Center
06:13AM 43.0097 -77.6075 133° Southeast 206 237 4,400 1,380 Climbing Cleveland Center
06:14AM 42.9872 -77.5433 116° Southeast 190 219 5,900 1,380 Climbing Cleveland Center
06:15AM 42.9686 -77.4761 111° Southeast 190 219 7,200 1,200 Climbing Cleveland Center
06:16AM 42.9002 -77.1669 124° Southeast  Level FlightAware Approximate
06:16AM 42.9461 -77.4064 114° Southeast 190 219 8,400  Level Cleveland Center
06:17AM 42.9231 -77.3308 113° Southeast 195 224 9,600 1,140 Climbing Cleveland Center
06:18AM 42.9000 -77.2583 113° Southeast 201 231 10,700 1,080 Climbing Cleveland Center
06:19AM 42.8769 -77.1831 113° Southeast 207 238 11,800 1,080 Climbing Cleveland Center
06:20AM 42.8561 -77.1050 110° East 212 244 12,900 420 Climbing Cleveland Center
06:22AM 42.8075 -76.9556 114° Southeast 236 272 13,000  Climbing New York Center
06:23AM 42.7586 -76.8522 123° Southeast 251 289 13,000  Level Boston Center
06:24AM 42.7203 -76.7647 121° Southeast 262 302 13,000  Level Boston Center
06:25AM 42.6819 -76.6772 121° Southeast 267 307 13,000  Level Boston Center
06:26AM 42.6436 -76.5900 121° Southeast 267 307 13,000  Level Boston Center
06:27AM 42.6050 -76.5056 122° Southeast 267 307 13,000  Level Boston Center
06:28AM 42.5642 -76.4181 122° Southeast 272 313 13,000  Level Boston Center
06:29AM 42.5256 -76.3283 120° Southeast 272 313 13,000  Level Boston Center
06:30AM 42.4867 -76.2442 122° Southeast 272 313 13,000  Level Boston Center
06:31AM 42.4519 -76.1633 120° Southeast 272 313 13,000  Level Boston Center
06:32AM 42.4111 -76.0736 122° Southeast 274 315 13,000  Level Boston Center
06:33AM 42.3742 -75.9900 121° Southeast 280 322 13,000  Level Boston Center
06:34AM 42.3311 -75.8975 122° Southeast 275 316 13,000  Level Boston Center
06:35AM 42.2919 -75.8139 122° Southeast 275 316 13,000  Level Boston Center
06:36AM 42.2528 -75.7222 120° Southeast 275 316 13,000  Level Boston Center
06:37AM 42.2094 -75.6331 123° Southeast 281 323 13,000  Level Boston Center
06:38AM 42.1722 -75.5469 120° Southeast 281 323 13,000  Level Boston Center
06:39AM 42.1308 -75.4608 123° Southeast 281 323 13,100  Climbing Boston Center
06:40AM 42.0856 -75.3664 123° Southeast 281 323 13,100  Level Boston Center
06:41AM 42.0481 -75.2781 120° Southeast 281 323 13,100 -60 Level Boston Center
06:42AM 42.0150 -75.1869 116° Southeast 276 318 13,000 -60 Descending Boston Center
06:43AM 41.9794 -75.0989 118° Southeast 267 307 13,000  Level Boston Center
06:44AM 41.9442 -75.0053 117° Southeast 272 313 13,000  Level Boston Center
06:45AM 41.9106 -74.9175 117° Southeast 272 313 13,000 -360 Level Boston Center
06:46AM 41.8622 -74.8431 131° Southeast 272 313 12,400 -1,020 Descending Boston Center
06:47AM 41.8031 -74.7739 139° Southeast 281 323 11,100 -1,200 Descending Boston Center
06:48AM 41.7442 -74.7022 138° Southeast 281 323 10,000 -1,200 Descending Boston Center
06:49AM 41.6828 -74.6444 145° Southeast 277 319 8,700 -1,020 Descending Boston Center
06:50AM 41.6122 -74.6308 172° South 262 302 8,000 -600 Descending Boston Center
06:51AM 41.5436 -74.6175 172° South 257 296 7,600 -840 Descending Boston Center
06:52AM 41.4731 -74.6039 172° South 257 296 6,300 -600 Descending Boston Center
06:54AM 41.3333 -74.6167 184° South 244 281 6,000 -120 Descending New York TRACON
06:55AM 41.2833 -74.5500 135° Southeast 244 281 6,000  Level New York TRACON
06:56AM 41.2333 -74.5000 143° Southeast 245 282 6,000 -300 Level New York TRACON
06:57AM 41.1833 -74.4500 143° Southeast 245 282 5,500 -840 Descending New York TRACON
06:58AM 41.1333 -74.3833 135° Southeast 244 281 4,500 -780 Descending New York TRACON
06:59AM 41.0833 -74.3333 143° Southeast 235 270 4,000 -300 Descending New York TRACON
07:00AM 41.0500 -74.2833 131° Southeast 225 259 4,000 -300 Level New York TRACON
07:01AM 41.0000 -74.2333 143° Southeast 233 268 3,500 -540 Descending New York TRACON
07:02AM 40.9500 -74.1833 143° Southeast 217 250 3,000 -300 Descending New York TRACON
07:03AM 40.9167 -74.1333 131° Southeast 210 242 3,000  Level New York TRACON
07:04AM 40.8667 -74.0833 143° Southeast 204 235 3,000 -120 Level New York TRACON
07:04AM 40.8167 -74.0833 180° South 205 236 2,800 -480 Descending New York TRACON
07:05AM 40.7667 -74.1167 207° Southwest 186 214 2,100 -960 Descending New York TRACON
07:06AM 40.7333 -74.1333 201° Southwest 128 147 900 -960 Descending New York TRACON
07:07AM 40.7000 -74.1500 201° Southwest 122 140 200 -720 Descending New York TRACON
07:09AM 40.6833 -74.1667 168° South  Level FlightAware Approximate